Time;durP1;ratioP1;P1;durP2;ratioP2;P2;SDS_P1;SDS_P2;PMS_P1;PMS_P2;Temp;Humidity;BMP_temperature;BMP_pressure;BME280_temperature;BME280_humidity;BME280_pressure;Samples;Min_cycle;Max_cycle;Signal;HPM_P1;HPM_P2
2021/12/30 00:02:15;;;;;;;106.85;57.80;;;8.70;99.90;;;;;;5014873;28;20112;-50
2021/12/30 00:04:41;;;;;;;98.47;56.70;;;8.70;99.90;;;;;;5014540;28;20046;-52
2021/12/30 00:07:09;;;;;;;113.65;60.92;;;8.70;99.90;;;;;;5014823;28;20175;-50
2021/12/30 00:09:36;;;;;;;101.22;57.10;;;8.80;99.90;;;;;;4969475;28;20042;-51
2021/12/30 00:12:02;;;;;;;97.70;55.80;;;8.60;99.90;;;;;;4995217;28;20037;-50
2021/12/30 00:14:28;;;;;;;93.97;52.65;;;8.70;99.90;;;;;;4960811;28;20066;-51
2021/12/30 00:16:54;;;;;;;110.78;60.70;;;8.60;99.90;;;;;;4994955;28;20065;-51
2021/12/30 00:19:20;;;;;;;97.97;58.03;;;8.60;99.90;;;;;;4995524;28;20385;-51
2021/12/30 00:21:46;;;;;;;95.65;54.85;;;8.70;99.90;;;;;;4994948;28;20137;-51
2021/12/30 00:24:12;;;;;;;88.78;51.55;;;8.60;99.90;;;;;;4944882;28;20483;-50
2021/12/30 00:26:37;;;;;;;102.80;58.00;;;8.40;99.90;;;;;;4996180;28;20030;-51
2021/12/30 00:29:04;;;;;;;103.78;57.45;;;8.60;99.90;;;;;;4980097;28;20033;-50
2021/12/30 00:31:30;;;;;;;89.53;52.17;;;8.60;99.90;;;;;;5014155;28;20053;-51
2021/12/30 00:33:56;;;;;;;94.13;53.67;;;8.60;99.90;;;;;;5014270;28;20484;-50
2021/12/30 00:36:21;;;;;;;93.13;55.28;;;8.50;99.90;;;;;;5014414;28;20065;-51
2021/12/30 00:38:48;;;;;;;89.68;53.78;;;8.50;99.90;;;;;;5014415;28;20037;-52
2021/12/30 00:41:14;;;;;;;82.03;50.65;;;8.40;99.90;;;;;;5014105;28;20041;-51
2021/12/30 00:43:40;;;;;;;87.90;54.67;;;8.40;99.90;;;;;;5014144;28;20052;-51
2021/12/30 00:46:07;;;;;;;98.13;57.17;;;8.40;99.90;;;;;;4995978;28;20046;-50
2021/12/30 00:48:33;;;;;;;89.82;54.15;;;8.50;99.90;;;;;;5013967;28;20022;-50
2021/12/30 00:50:59;;;;;;;89.88;53.88;;;8.50;99.90;;;;;;4979615;28;20038;-51
2021/12/30 00:53:25;;;;;;;80.78;51.33;;;8.50;99.90;;;;;;5014188;28;20031;-50
2021/12/30 00:55:51;;;;;;;77.82;45.38;;;8.40;99.90;;;;;;5014134;28;20585;-50
2021/12/30 00:58:17;;;;;;;86.78;53.08;;;8.40;99.90;;;;;;5013923;28;20030;-51
2021/12/30 01:00:46;;;;;;;78.78;47.05;;;8.40;99.90;;;;;;5013593;28;20026;-50
2021/12/30 01:03:13;;;;;;;80.65;47.47;;;8.20;99.90;;;;;;5013863;28;20026;-50
2021/12/30 01:05:39;;;;;;;90.53;51.38;;;8.10;99.90;;;;;;5013776;28;20091;-51
2021/12/30 01:08:08;;;;;;;83.05;48.05;;;8.20;99.90;;;;;;4995641;28;20042;-51
2021/12/30 01:10:36;;;;;;;73.85;44.78;;;8.20;99.90;;;;;;4994872;28;20030;-51
2021/12/30 01:13:07;;;;;;;68.88;41.72;;;8.20;99.90;;;;;;5013984;28;20108;-51
2021/12/30 01:15:49;;;;;;;65.50;39.10;;;8.10;99.90;;;;;;5013614;28;20044;-50
2021/12/30 01:20:51;;;;;;;65.18;38.90;;;8.00;99.90;;;;;;4997365;28;20041;-50
2021/12/30 01:23:18;;;;;;;64.63;37.42;;;8.00;99.90;;;;;;5013529;28;20033;-51
2021/12/30 01:25:44;;;;;;;60.90;37.10;;;8.00;99.90;;;;;;5013978;28;20030;-52
2021/12/30 01:28:10;;;;;;;63.40;38.40;;;8.10;99.90;;;;;;5013705;28;20030;-50
2021/12/30 01:30:36;;;;;;;59.75;34.33;;;8.10;99.90;;;;;;5013677;28;20102;-50
2021/12/30 01:33:02;;;;;;;67.22;37.67;;;8.10;99.90;;;;;;5014079;28;20029;-51
2021/12/30 01:35:28;;;;;;;65.85;36.88;;;8.10;99.90;;;;;;4995264;28;20050;-51
2021/12/30 01:37:57;;;;;;;62.88;36.38;;;8.20;99.90;;;;;;5013369;28;20032;-50
2021/12/30 01:40:23;;;;;;;66.55;40.42;;;8.20;99.90;;;;;;5013720;28;20153;-51
2021/12/30 01:42:50;;;;;;;61.05;36.63;;;8.30;99.90;;;;;;5013532;28;20053;-50
2021/12/30 01:45:16;;;;;;;52.83;31.02;;;8.40;99.90;;;;;;5013231;28;20071;-51
2021/12/30 01:47:49;;;;;;;49.85;29.05;;;8.50;99.90;;;;;;5013242;28;20026;-51
2021/12/30 01:50:15;;;;;;;57.67;35.33;;;8.30;99.90;;;;;;5013236;28;20037;-50
2021/12/30 01:52:41;;;;;;;57.58;33.55;;;8.20;99.90;;;;;;4979165;28;20203;-51
2021/12/30 01:55:09;;;;;;;55.22;33.15;;;8.30;99.90;;;;;;5013160;28;20113;-50
2021/12/30 01:57:34;;;;;;;53.03;31.40;;;8.20;99.90;;;;;;4963075;28;20036;-51
2021/12/30 02:00:01;;;;;;;51.90;30.38;;;8.20;99.90;;;;;;4978974;28;20041;-50
2021/12/30 02:02:26;;;;;;;51.95;31.08;;;8.20;99.90;;;;;;5013352;28;20026;-50
2021/12/30 02:04:52;;;;;;;52.25;32.35;;;8.20;99.90;;;;;;5013016;28;20141;-51
2021/12/30 02:07:18;;;;;;;47.50;30.15;;;8.10;99.90;;;;;;4978630;28;20038;-51
2021/12/30 02:09:44;;;;;;;48.40;29.27;;;8.10;99.90;;;;;;5013053;28;20385;-50
2021/12/30 02:12:10;;;;;;;51.38;28.75;;;8.10;99.90;;;;;;5013016;28;20105;-51
2021/12/30 02:14:36;;;;;;;47.22;29.48;;;8.20;99.90;;;;;;4962693;28;20157;-51
2021/12/30 02:17:04;;;;;;;49.70;29.70;;;8.10;99.90;;;;;;5013229;28;20045;-51
2021/12/30 02:19:31;;;;;;;47.38;29.02;;;8.10;99.90;;;;;;5013008;28;20036;-51
2021/12/30 02:21:56;;;;;;;42.50;27.40;;;8.00;99.90;;;;;;5016414;28;20109;-51
2021/12/30 02:24:22;;;;;;;49.17;28.08;;;8.00;99.90;;;;;;4982617;28;20573;-51
2021/12/30 02:26:48;;;;;;;48.10;26.90;;;8.00;99.90;;;;;;5014950;28;20484;-50
2021/12/30 02:29:14;;;;;;;40.80;24.63;;;8.00;99.90;;;;;;4982236;28;20037;-51
2021/12/30 02:31:41;;;;;;;40.42;25.70;;;8.00;99.90;;;;;;5016961;28;20026;-51
2021/12/30 02:34:07;;;;;;;43.25;25.75;;;8.00;99.90;;;;;;5016473;28;20038;-51
2021/12/30 02:36:35;;;;;;;42.65;27.55;;;8.10;99.90;;;;;;5016582;28;20048;-51
2021/12/30 02:39:05;;;;;;;41.40;24.10;;;8.20;99.90;;;;;;5016467;28;20028;-51
2021/12/30 02:41:36;;;;;;;40.13;25.02;;;8.30;99.90;;;;;;5016665;28;20121;-51
2021/12/30 02:44:04;;;;;;;39.47;23.80;;;8.20;99.90;;;;;;5016489;28;20034;-50
2021/12/30 02:46:30;;;;;;;38.28;24.63;;;8.20;99.90;;;;;;5016476;28;20026;-51
2021/12/30 02:48:58;;;;;;;40.17;25.25;;;8.30;99.90;;;;;;5016516;28;20021;-52
2021/12/30 02:51:26;;;;;;;45.58;26.70;;;8.30;99.90;;;;;;5016122;28;20105;-51
2021/12/30 02:53:52;;;;;;;42.60;24.63;;;8.40;99.90;;;;;;4998098;28;20034;-51
2021/12/30 02:56:19;;;;;;;40.75;22.80;;;8.40;99.90;;;;;;5013023;28;20052;-50
2021/12/30 02:58:45;;;;;;;40.75;23.67;;;8.20;99.90;;;;;;5016463;28;20036;-50
2021/12/30 03:01:27;;;;;;;36.70;22.70;;;8.20;99.90;;;;;;5016137;28;20100;-51
2021/12/30 03:03:54;;;;;;;34.78;22.88;;;8.10;99.90;;;;;;5015966;28;20399;-51
2021/12/30 03:06:21;;;;;;;37.78;23.52;;;8.10;99.90;;;;;;5015873;28;20413;-51
2021/12/30 03:08:48;;;;;;;39.33;23.92;;;8.10;99.90;;;;;;5015865;28;20508;-51
2021/12/30 03:11:15;;;;;;;38.35;24.15;;;8.20;99.90;;;;;;5015918;28;20037;-51
2021/12/30 03:13:43;;;;;;;37.17;23.10;;;8.10;99.90;;;;;;5015857;28;20088;-51
2021/12/30 03:16:16;;;;;;;41.22;23.75;;;8.10;99.90;;;;;;5016037;28;20042;-50
2021/12/30 03:18:45;;;;;;;37.05;23.25;;;8.10;99.90;;;;;;4997538;28;20041;-51
2021/12/30 03:21:15;;;;;;;40.92;24.23;;;8.10;99.90;;;;;;5015624;28;20420;-52
2021/12/30 03:23:42;;;;;;;39.97;24.85;;;8.20;99.90;;;;;;5015775;28;20482;-51
2021/12/30 03:26:08;;;;;;;35.50;22.33;;;8.30;99.90;;;;;;5015645;28;20497;-51
2021/12/30 03:28:35;;;;;;;36.72;22.95;;;8.40;99.90;;;;;;5015341;28;20490;-51
2021/12/30 03:31:01;;;;;;;36.45;21.63;;;8.30;99.90;;;;;;4997280;28;20168;-51
2021/12/30 03:33:29;;;;;;;33.45;22.05;;;8.40;99.90;;;;;;5014704;28;20065;-51
2021/12/30 03:35:59;;;;;;;32.85;21.85;;;8.50;99.90;;;;;;5015332;28;20042;-51
2021/12/30 03:38:29;;;;;;;32.20;21.73;;;8.50;99.90;;;;;;5015189;28;20390;-51
2021/12/30 03:40:55;;;;;;;35.47;22.15;;;8.60;99.90;;;;;;5015554;28;20366;-51
2021/12/30 03:43:20;;;;;;;33.88;22.50;;;8.70;99.90;;;;;;5015217;28;20106;-50
2021/12/30 03:45:46;;;;;;;34.65;22.83;;;8.80;99.90;;;;;;5015172;28;20101;-51
2021/12/30 03:48:12;;;;;;;30.23;21.20;;;8.90;99.90;;;;;;4980777;28;20038;-51
2021/12/30 03:50:44;;;;;;;36.03;24.13;;;9.00;99.90;;;;;;5015056;28;20084;-50
2021/12/30 03:53:11;;;;;;;34.08;21.98;;;9.00;99.90;;;;;;5014960;28;20037;-50
2021/12/30 03:55:37;;;;;;;34.92;21.92;;;9.00;99.90;;;;;;5014897;28;20042;-51
2021/12/30 03:58:04;;;;;;;33.42;21.45;;;8.90;99.90;;;;;;5015248;28;20088;-51
2021/12/30 04:00:32;;;;;;;30.95;21.20;;;8.80;99.90;;;;;;5014831;28;20139;-52
2021/12/30 04:02:58;;;;;;;35.08;22.90;;;8.70;99.90;;;;;;5015305;28;20018;-51
2021/12/30 04:05:24;;;;;;;34.83;24.75;;;8.60;99.90;;;;;;4962552;28;20066;-50
2021/12/30 04:07:51;;;;;;;36.17;23.35;;;8.60;99.90;;;;;;4995128;28;20033;-50
2021/12/30 04:10:21;;;;;;;36.40;23.15;;;8.60;99.90;;;;;;4995095;28;20050;-51
2021/12/30 04:12:47;;;;;;;33.40;24.20;;;8.60;99.90;;;;;;4995169;28;20121;-51
2021/12/30 04:15:13;;;;;;;31.20;20.85;;;8.90;99.90;;;;;;4994997;28;20026;-52
2021/12/30 04:17:39;;;;;;;34.55;23.65;;;8.80;99.90;;;;;;4928615;28;20405;-50
2021/12/30 04:20:10;;;;;;;31.52;23.65;;;8.80;99.90;;;;;;4977462;28;20430;-51
2021/12/30 04:22:36;;;;;;;29.40;20.75;;;8.80;99.90;;;;;;4960621;28;20085;-52
2021/12/30 04:25:04;;;;;;;28.45;19.70;;;8.80;99.90;;;;;;4988129;28;20471;-50
2021/12/30 04:27:30;;;;;;;29.23;19.17;;;8.60;99.90;;;;;;4941597;28;20043;-51
2021/12/30 04:29:55;;;;;;;27.77;19.90;;;8.60;99.90;;;;;;4941509;28;20105;-50
2021/12/30 04:32:21;;;;;;;28.15;19.15;;;8.50;99.90;;;;;;4975318;28;20050;-51
2021/12/30 04:34:47;;;;;;;26.17;19.42;;;8.40;99.90;;;;;;4975344;28;20039;-51
2021/12/30 04:37:13;;;;;;;23.83;16.70;;;8.40;99.90;;;;;;4941388;28;20093;-51
2021/12/30 04:39:38;;;;;;;24.08;16.02;;;8.40;99.90;;;;;;4941356;28;20475;-50
2021/12/30 04:42:05;;;;;;;24.30;17.17;;;8.40;99.90;;;;;;4984968;28;20033;-51
2021/12/30 04:44:31;;;;;;;23.88;16.35;;;8.20;99.90;;;;;;4975147;28;20045;-50
2021/12/30 04:46:58;;;;;;;24.83;17.20;;;8.40;99.90;;;;;;4974954;28;20030;-51
2021/12/30 04:49:24;;;;;;;25.75;17.80;;;8.40;99.90;;;;;;4957016;28;20041;-51
2021/12/30 04:51:50;;;;;;;23.85;16.15;;;8.40;99.90;;;;;;4974938;28;20031;-51
2021/12/30 04:54:16;;;;;;;21.95;15.75;;;8.20;99.90;;;;;;4974808;28;20074;-50
2021/12/30 04:56:42;;;;;;;23.23;15.88;;;8.10;99.90;;;;;;4974799;28;20039;-50
2021/12/30 04:59:08;;;;;;;23.00;15.90;;;8.20;99.90;;;;;;4975010;28;20069;-51
2021/12/30 05:01:34;;;;;;;23.88;16.00;;;8.20;99.90;;;;;;4985863;28;20157;-50
2021/12/30 05:04:00;;;;;;;24.55;17.15;;;8.30;99.90;;;;;;4966459;28;20042;-51
2021/12/30 05:06:25;;;;;;;24.05;16.40;;;8.20;99.90;;;;;;4972510;28;20031;-50
2021/12/30 05:08:51;;;;;;;26.65;17.88;;;8.10;99.90;;;;;;4922892;28;20403;-52
2021/12/30 05:11:17;;;;;;;23.75;16.42;;;8.10;99.90;;;;;;4970803;28;21450;-50
2021/12/30 05:13:43;;;;;;;26.02;17.55;;;8.20;99.90;;;;;;4969055;28;20031;-51
2021/12/30 05:16:08;;;;;;;23.13;16.45;;;8.30;99.90;;;;;;4965033;28;20547;-50
2021/12/30 05:18:36;;;;;;;23.92;16.77;;;8.40;99.90;;;;;;4953252;29;20372;-50
2021/12/30 05:21:04;;;;;;;28.40;18.10;;;8.30;99.90;;;;;;4953185;29;20126;-51
2021/12/30 05:23:31;;;;;;;27.85;19.02;;;8.20;99.90;;;;;;4953277;29;20035;-51
2021/12/30 05:25:57;;;;;;;31.70;20.00;;;8.20;99.90;;;;;;4953188;29;20043;-51
2021/12/30 05:28:22;;;;;;;28.40;19.73;;;8.20;99.90;;;;;;4953302;29;20138;-51
2021/12/30 05:30:49;;;;;;;30.35;19.95;;;8.30;99.90;;;;;;4953241;29;20475;-53
2021/12/30 05:33:15;;;;;;;27.25;19.42;;;8.30;99.90;;;;;;4952896;29;20027;-51
2021/12/30 05:35:41;;;;;;;26.90;19.00;;;8.40;99.90;;;;;;4960506;28;20499;-51
2021/12/30 05:38:07;;;;;;;31.15;20.55;;;8.50;99.90;;;;;;4970329;28;20038;-51
2021/12/30 05:40:33;;;;;;;31.17;19.88;;;8.60;99.90;;;;;;5012616;28;20028;-50
2021/12/30 05:43:00;;;;;;;27.13;19.42;;;8.70;99.90;;;;;;4960685;28;20033;-51
2021/12/30 05:45:26;;;;;;;25.02;17.48;;;8.70;99.90;;;;;;5013020;28;20026;-51
2021/12/30 05:47:53;;;;;;;25.80;18.45;;;8.70;99.90;;;;;;5014510;28;20443;-51
2021/12/30 05:50:26;;;;;;;23.20;17.10;;;8.70;99.90;;;;;;4998295;28;20029;-51
2021/12/30 05:52:52;;;;;;;24.02;17.70;;;8.60;99.90;;;;;;4976222;28;20088;-50
2021/12/30 05:55:18;;;;;;;27.83;18.00;;;8.70;99.90;;;;;;5013545;28;20481;-50
2021/12/30 05:57:44;;;;;;;27.27;18.23;;;8.70;99.90;;;;;;4982900;28;20034;-51
2021/12/30 06:00:13;;;;;;;28.80;18.67;;;8.60;99.90;;;;;;5017212;28;20034;-50
2021/12/30 06:02:39;;;;;;;27.33;18.80;;;8.60;99.90;;;;;;4968993;28;20132;-50
2021/12/30 06:05:05;;;;;;;28.67;17.45;;;8.60;99.90;;;;;;4998624;28;20565;-50
2021/12/30 06:07:31;;;;;;;26.17;18.05;;;8.40;99.90;;;;;;5016824;28;20504;-51
2021/12/30 06:09:57;;;;;;;24.58;17.15;;;8.40;99.90;;;;;;4999042;28;20034;-51
2021/12/30 06:12:23;;;;;;;26.33;18.17;;;8.40;99.90;;;;;;5016911;28;20033;-51
2021/12/30 06:14:49;;;;;;;31.58;19.63;;;8.50;99.90;;;;;;5016899;28;20499;-51
2021/12/30 06:17:15;;;;;;;30.33;20.20;;;8.50;99.90;;;;;;4982315;28;20049;-50
2021/12/30 06:19:42;;;;;;;30.73;20.15;;;8.60;99.90;;;;;;5016658;28;20030;-50
2021/12/30 06:22:09;;;;;;;32.10;19.05;;;8.70;99.90;;;;;;5016993;28;20038;-51
2021/12/30 06:24:35;;;;;;;33.78;22.70;;;8.70;99.90;;;;;;5017627;28;20026;-51
2021/12/30 06:27:01;;;;;;;30.80;21.30;;;8.80;99.90;;;;;;5016872;28;20109;-50
2021/12/30 06:29:27;;;;;;;28.70;20.42;;;8.80;99.90;;;;;;4981848;28;20037;-51
2021/12/30 06:31:53;;;;;;;30.88;19.77;;;8.70;99.90;;;;;;5019091;28;20108;-51
2021/12/30 06:34:19;;;;;;;29.88;20.52;;;8.70;99.90;;;;;;5003547;28;20382;-50
2021/12/30 06:36:44;;;;;;;30.42;20.88;;;8.80;99.90;;;;;;4997937;28;20030;-49
2021/12/30 06:39:10;;;;;;;45.75;30.52;;;8.60;99.90;;;;;;4948202;28;20569;-51
2021/12/30 06:41:36;;;;;;;88.53;52.88;;;8.40;99.90;;;;;;5001345;28;20034;-52
2021/12/30 06:44:02;;;;;;;86.93;55.40;;;8.10;99.90;;;;;;5018157;28;20052;-49
2021/12/30 06:46:28;;;;;;;112.72;77.90;;;8.00;99.90;;;;;;5036285;28;20033;-49
2021/12/30 06:48:54;;;;;;;101.13;70.60;;;8.10;99.90;;;;;;5036060;28;20029;-51
2021/12/30 06:51:23;;;;;;;93.57;64.72;;;8.20;99.90;;;;;;5017769;28;20084;-51
2021/12/30 06:53:49;;;;;;;70.18;45.55;;;8.20;99.90;;;;;;5036280;28;20033;-50
2021/12/30 06:56:15;;;;;;;66.97;47.40;;;8.10;99.90;;;;;;5035920;28;20469;-50
2021/12/30 06:58:41;;;;;;;55.03;39.03;;;8.20;99.90;;;;;;5036049;28;20022;-49
2021/12/30 07:01:07;;;;;;;45.70;29.33;;;8.20;99.90;;;;;;5035845;28;20029;-49
2021/12/30 07:03:33;;;;;;;38.15;25.23;;;8.30;99.90;;;;;;5036148;28;20049;-50
2021/12/30 07:05:59;;;;;;;44.95;31.30;;;8.30;99.90;;;;;;5035544;28;20029;-51
2021/12/30 07:08:25;;;;;;;39.58;26.60;;;8.20;99.90;;;;;;4983896;28;20072;-51
2021/12/30 07:10:51;;;;;;;32.88;22.20;;;8.20;99.90;;;;;;5035684;28;20032;-50
2021/12/30 07:13:17;;;;;;;53.38;35.55;;;8.10;99.90;;;;;;5035799;28;20027;-51
2021/12/30 07:15:42;;;;;;;46.05;31.63;;;8.00;99.90;;;;;;5035695;28;20474;-50
2021/12/30 07:18:08;;;;;;;40.78;27.63;;;8.00;99.90;;;;;;5035762;28;20067;-49
2021/12/30 07:20:34;;;;;;;36.72;23.55;;;8.20;99.90;;;;;;5035675;28;20079;-49
2021/12/30 07:23:00;;;;;;;30.58;21.42;;;8.20;99.90;;;;;;5035357;28;20428;-51
2021/12/30 07:25:26;;;;;;;26.05;17.48;;;8.30;99.90;;;;;;5000734;28;20034;-51
2021/12/30 07:27:54;;;;;;;29.58;19.73;;;8.20;99.90;;;;;;5017063;28;20061;-50
2021/12/30 07:30:21;;;;;;;25.33;16.67;;;8.20;99.90;;;;;;5035511;28;20052;-49
2021/12/30 07:32:47;;;;;;;27.05;17.73;;;8.10;99.90;;;;;;5017188;28;20037;-49
2021/12/30 07:35:15;;;;;;;26.25;17.75;;;8.10;99.90;;;;;;4968199;28;20034;-49
2021/12/30 07:37:41;;;;;;;25.92;18.85;;;8.10;99.90;;;;;;5035162;28;20533;-51
2021/12/30 07:40:08;;;;;;;21.23;14.57;;;8.00;99.90;;;;;;5035389;28;20108;-51
2021/12/30 07:42:33;;;;;;;21.92;15.30;;;7.90;99.90;;;;;;5035504;28;20104;-51
2021/12/30 07:44:59;;;;;;;33.05;21.67;;;8.00;99.90;;;;;;5035427;28;20437;-49
2021/12/30 07:47:25;;;;;;;611.70;350.45;;;8.00;99.90;;;;;;5035291;28;20030;-50
2021/12/30 07:49:51;;;;;;;37.05;24.73;;;8.10;99.90;;;;;;5035188;28;20028;-51
2021/12/30 07:52:17;;;;;;;30.35;20.20;;;8.00;99.90;;;;;;5034864;28;20033;-49
2021/12/30 07:54:44;;;;;;;31.20;20.98;;;8.20;99.90;;;;;;5034918;28;20029;-49
2021/12/30 07:57:20;;;;;;;30.52;20.90;;;9.10;99.90;;;;;;5035149;28;20046;-51
2021/12/30 07:59:47;;;;;;;25.83;17.75;;;9.70;99.90;;;;;;5035258;28;20029;-49
2021/12/30 08:02:13;;;;;;;69.70;42.75;;;9.30;99.90;;;;;;4983654;28;20043;-51
2021/12/30 08:04:38;;;;;;;35.53;23.63;;;9.40;99.90;;;;;;5034582;28;20408;-51
2021/12/30 08:07:04;;;;;;;34.67;22.83;;;9.10;99.90;;;;;;4983851;28;20397;-50
2021/12/30 08:09:30;;;;;;;38.40;25.65;;;9.30;99.90;;;;;;5034558;28;20053;-50
2021/12/30 08:11:56;;;;;;;39.67;25.40;;;9.10;99.90;;;;;;5034518;28;20033;-52
2021/12/30 08:14:21;;;;;;;49.70;29.63;;;9.00;99.90;;;;;;5034679;28;20029;-51
2021/12/30 08:16:47;;;;;;;73.45;38.10;;;9.10;99.90;;;;;;5034489;28;20056;-51
2021/12/30 08:19:13;;;;;;;73.45;40.97;;;9.00;99.90;;;;;;5033633;28;20036;-50
2021/12/30 08:21:42;;;;;;;74.60;41.55;;;9.10;99.90;;;;;;5031225;28;20060;-51
2021/12/30 08:24:09;;;;;;;43.13;24.58;;;9.10;99.90;;;;;;5012300;28;20120;-51
2021/12/30 08:26:35;;;;;;;46.75;27.27;;;8.90;99.90;;;;;;5017223;28;20064;-49
2021/12/30 08:29:01;;;;;;;77.32;42.60;;;8.70;99.90;;;;;;5014009;28;20030;-49
2021/12/30 08:31:26;;;;;;;77.53;41.35;;;8.60;99.90;;;;;;4963871;28;20453;-50
2021/12/30 08:33:52;;;;;;;58.80;35.40;;;8.60;99.90;;;;;;4953562;29;20035;-52
2021/12/30 08:36:18;;;;;;;56.78;35.00;;;8.50;99.90;;;;;;4921954;29;20058;-50
2021/12/30 08:38:44;;;;;;;35.65;23.90;;;8.60;99.90;;;;;;4953719;29;20047;-52
2021/12/30 08:41:10;;;;;;;44.00;27.85;;;8.40;99.90;;;;;;4953571;29;20028;-51
2021/12/30 08:43:36;;;;;;;40.08;24.48;;;8.40;99.90;;;;;;4953692;29;20035;-51
2021/12/30 08:46:02;;;;;;;45.75;31.23;;;8.20;99.90;;;;;;4953651;29;20070;-50
2021/12/30 08:48:28;;;;;;;35.60;22.60;;;8.40;99.90;;;;;;4921819;29;20035;-50
2021/12/30 08:50:53;;;;;;;37.25;23.02;;;8.40;99.90;;;;;;4890270;29;20478;-50
2021/12/30 08:53:22;;;;;;;33.67;21.77;;;8.60;99.90;;;;;;4905903;29;20043;-51
2021/12/30 08:55:47;;;;;;;38.78;25.73;;;8.60;99.90;;;;;;4953557;29;20058;-51
2021/12/30 08:58:13;;;;;;;33.40;22.98;;;8.70;99.90;;;;;;4952001;29;20050;-50
2021/12/30 09:00:41;;;;;;;28.30;17.67;;;8.60;99.90;;;;;;4953447;29;20042;-49
2021/12/30 09:03:08;;;;;;;25.80;16.02;;;8.60;99.90;;;;;;4953288;29;20483;-50
2021/12/30 09:05:35;;;;;;;26.58;16.70;;;8.50;99.90;;;;;;5001208;28;20096;-50
2021/12/30 09:08:03;;;;;;;23.30;15.30;;;8.60;99.90;;;;;;4979429;28;20050;-51
2021/12/30 09:10:35;;;;;;;31.02;21.00;;;8.70;99.90;;;;;;5012873;28;20112;-51
2021/12/30 09:13:01;;;;;;;23.27;15.85;;;8.70;99.90;;;;;;5022592;28;20033;-49
2021/12/30 09:15:29;;;;;;;22.38;14.35;;;8.90;99.90;;;;;;5013060;28;20508;-50
2021/12/30 09:17:55;;;;;;;17.77;12.20;;;8.80;99.90;;;;;;5013793;28;20034;-50
2021/12/30 09:20:22;;;;;;;17.38;11.82;;;8.80;99.90;;;;;;5013642;28;20668;-50
2021/12/30 09:22:49;;;;;;;19.75;13.23;;;8.70;99.90;;;;;;4976857;28;20034;-51
2021/12/30 09:25:17;;;;;;;21.08;13.63;;;8.80;99.90;;;;;;4979323;28;20044;-50
2021/12/30 09:27:43;;;;;;;15.45;11.32;;;8.90;99.90;;;;;;4964212;28;20461;-50
2021/12/30 09:30:12;;;;;;;17.77;12.65;;;8.90;99.90;;;;;;4946157;28;20121;-51
2021/12/30 09:32:38;;;;;;;15.20;11.25;;;8.70;99.90;;;;;;4979473;28;20517;-51
2021/12/30 09:35:05;;;;;;;13.85;9.63;;;8.60;99.90;;;;;;5013544;28;20030;-51
2021/12/30 09:37:31;;;;;;;21.13;15.30;;;8.50;99.90;;;;;;4963113;28;20038;-51
2021/12/30 09:39:59;;;;;;;19.20;13.55;;;8.60;99.90;;;;;;4979066;28;20038;-51
2021/12/30 09:42:25;;;;;;;21.52;13.32;;;8.60;99.90;;;;;;5013556;28;20041;-51
2021/12/30 09:44:51;;;;;;;18.15;11.48;;;8.60;99.90;;;;;;5013465;28;20022;-49
2021/12/30 09:47:17;;;;;;;18.13;13.00;;;8.40;99.90;;;;;;4963130;28;20109;-50
2021/12/30 09:49:44;;;;;;;19.75;14.43;;;8.30;99.90;;;;;;5013299;28;20046;-51
2021/12/30 09:52:10;;;;;;;23.63;17.20;;;8.40;99.90;;;;;;4963888;28;20073;-50
2021/12/30 09:54:36;;;;;;;17.40;11.68;;;8.30;99.90;;;;;;5013282;28;20108;-49
2021/12/30 09:57:02;;;;;;;17.05;11.90;;;8.20;99.90;;;;;;5013477;28;20523;-50
2021/12/30 09:59:30;;;;;;;18.00;12.13;;;8.40;99.90;;;;;;4978906;28;20462;-51
2021/12/30 10:01:55;;;;;;;21.88;15.10;;;8.40;99.90;;;;;;5013399;28;20405;-49
2021/12/30 10:04:32;;;;;;;18.52;10.38;;;8.70;99.90;;;;;;4914883;28;20050;-50
2021/12/30 10:06:59;;;;;;;16.40;11.32;;;8.60;99.90;;;;;;4962791;28;20041;-50
2021/12/30 10:09:53;;;;;;;17.95;11.15;;;8.40;99.90;;;;;;5013969;28;20026;-50
2021/12/30 10:12:39;;;;;;;15.73;10.70;;;8.30;99.90;;;;;;5013182;28;20037;-49
2021/12/30 10:15:08;;;;;;;20.75;13.43;;;8.30;99.90;;;;;;5013124;28;20053;-50
2021/12/30 10:17:34;;;;;;;37.15;22.42;;;8.30;99.90;;;;;;5013302;28;20104;-50
2021/12/30 10:20:24;;;;;;;26.63;14.82;;;8.50;99.90;;;;;;4946608;28;20042;-51
2021/12/30 10:22:51;;;;;;;105.07;58.20;;;8.50;99.90;;;;;;4979013;28;20107;-49
2021/12/30 10:25:30;;;;;;;18.50;13.50;;;8.60;99.90;;;;;;5013101;28;20444;-51
2021/12/30 10:28:15;;;;;;;39.95;24.92;;;8.50;99.90;;;;;;4978812;28;20371;-50
2021/12/30 10:30:40;;;;;;;27.13;18.45;;;8.40;99.90;;;;;;5013075;28;20489;-51
2021/12/30 10:33:20;;;;;;;26.45;18.55;;;8.60;99.90;;;;;;4962818;28;20046;-50
2021/12/30 10:35:47;;;;;;;20.63;15.00;;;8.60;99.90;;;;;;5012777;28;20107;-49
2021/12/30 10:38:14;;;;;;;18.52;12.70;;;8.80;99.90;;;;;;5013061;28;20080;-49
2021/12/30 10:40:52;;;;;;;19.20;13.27;;;8.80;99.90;;;;;;5012887;28;20034;-49
2021/12/30 10:43:47;;;;;;;21.35;14.70;;;9.00;99.90;;;;;;5016131;28;20037;-49
2021/12/30 10:46:28;;;;;;;27.00;16.83;;;9.10;99.90;;;;;;5015818;28;20046;-51
2021/12/30 10:48:57;;;;;;;18.92;12.50;;;8.70;99.90;;;;;;5016662;28;20030;-50
2021/12/30 10:51:23;;;;;;;19.88;12.32;;;8.80;99.90;;;;;;5016259;28;20029;-51
2021/12/30 10:53:51;;;;;;;24.40;15.85;;;9.00;99.90;;;;;;4998174;28;20049;-50
2021/12/30 10:56:30;;;;;;;22.95;14.70;;;9.00;99.90;;;;;;5016193;28;20048;-49
2021/12/30 10:59:11;;;;;;;30.27;22.50;;;9.00;99.90;;;;;;4965751;28;20038;-49
2021/12/30 11:01:39;;;;;;;25.95;18.83;;;9.20;99.90;;;;;;4998087;28;20054;-50
2021/12/30 11:04:05;;;;;;;29.05;21.75;;;9.30;99.90;;;;;;5016026;28;20049;-51
2021/12/30 11:06:31;;;;;;;29.17;20.70;;;9.50;99.90;;;;;;4997843;28;20440;-50
2021/12/30 11:09:23;;;;;;;25.13;16.92;;;9.60;99.90;;;;;;5016101;28;20064;-50
2021/12/30 11:11:53;;;;;;;18.08;13.15;;;9.40;99.90;;;;;;5011290;28;20101;-49
2021/12/30 11:14:24;;;;;;;22.13;14.80;;;9.30;99.90;;;;;;4997849;28;20104;-49
2021/12/30 11:16:58;;;;;;;19.77;13.48;;;9.40;99.90;;;;;;5015702;28;20037;-51
2021/12/30 11:19:26;;;;;;;20.13;13.55;;;9.50;99.90;;;;;;5016205;28;20036;-50
2021/12/30 11:21:52;;;;;;;21.88;13.75;;;9.40;99.90;;;;;;5015621;28;20036;-49
2021/12/30 11:24:20;;;;;;;24.63;12.88;;;9.30;99.90;;;;;;5016009;28;20433;-50
2021/12/30 11:26:46;;;;;;;36.67;21.13;;;9.30;99.90;;;;;;5015659;28;20121;-50
2021/12/30 11:29:11;;;;;;;19.67;13.43;;;8.90;99.90;;;;;;5017640;28;20088;-52
2021/12/30 11:31:37;;;;;;;34.47;20.50;;;9.00;99.90;;;;;;5017509;28;20113;-51
2021/12/30 11:34:04;;;;;;;21.55;13.68;;;8.90;99.90;;;;;;5016525;28;20045;-51
2021/12/30 11:36:30;;;;;;;19.90;13.07;;;8.90;99.90;;;;;;5015353;28;20037;-49
2021/12/30 11:39:02;;;;;;;25.25;16.10;;;8.90;99.90;;;;;;5015347;28;20172;-49
2021/12/30 11:41:29;;;;;;;23.58;15.13;;;8.90;99.90;;;;;;5015631;28;20034;-50
2021/12/30 11:43:56;;;;;;;103.80;53.97;;;9.00;99.90;;;;;;5015219;28;20385;-49
2021/12/30 11:46:41;;;;;;;62.78;30.48;;;9.00;99.90;;;;;;4964666;28;20053;-48
2021/12/30 11:49:09;;;;;;;35.88;16.40;;;8.90;99.90;;;;;;5012293;28;20127;-51
2021/12/30 11:51:43;;;;;;;34.55;19.27;;;9.00;99.90;;;;;;5015222;28;20029;-51
2021/12/30 11:54:35;;;;;;;21.58;15.50;;;9.10;99.90;;;;;;4996396;28;20135;-49
2021/12/30 11:57:25;;;;;;;29.65;18.40;;;9.20;99.90;;;;;;5014999;28;20038;-50
2021/12/30 11:59:53;;;;;;;53.85;26.35;;;9.20;99.90;;;;;;5015268;28;20452;-50
2021/12/30 12:02:33;;;;;;;41.45;21.83;;;9.00;99.90;;;;;;5015069;28;20130;-50
2021/12/30 12:05:37;;;;;;;18.33;13.40;;;9.20;99.90;;;;;;5014740;28;20129;-51
2021/12/30 12:08:06;;;;;;;47.58;24.17;;;9.40;99.90;;;;;;5014831;28;20044;-49
2021/12/30 12:10:32;;;;;;;36.60;20.92;;;9.50;99.90;;;;;;4981056;28;20045;-50
2021/12/30 12:12:57;;;;;;;78.55;31.90;;;9.60;99.90;;;;;;5014982;28;20421;-51
2021/12/30 12:15:41;;;;;;;20.05;14.60;;;9.50;99.90;;;;;;5014744;28;20091;-49
2021/12/30 12:18:13;;;;;;;23.40;16.85;;;9.60;99.90;;;;;;5014848;28;20382;-50
2021/12/30 12:20:49;;;;;;;;;;;9.60;99.90;;;;;;5015056;28;20026;-50
2021/12/30 12:23:36;;;;;;;77.63;29.42;;;9.50;99.90;;;;;;5014721;28;19916;-50
2021/12/30 12:26:14;;;;;;;28.35;16.17;;;9.50;99.90;;;;;;5011736;28;20034;-51
2021/12/30 12:28:41;;;;;;;19.13;13.57;;;9.60;99.90;;;;;;5014508;28;20045;-51
2021/12/30 12:31:10;;;;;;;192.07;63.38;;;9.70;99.90;;;;;;5014375;28;20030;-51
2021/12/30 12:33:38;;;;;;;49.78;23.17;;;9.60;99.90;;;;;;4980004;28;20107;-50
2021/12/30 12:36:32;;;;;;;19.13;14.52;;;9.50;99.90;;;;;;5014509;28;20038;-49
2021/12/30 12:38:58;;;;;;;141.65;46.17;;;9.40;99.90;;;;;;5014345;28;20453;-50
2021/12/30 12:41:28;;;;;;;113.95;38.97;;;9.20;99.90;;;;;;5014542;28;20084;-49
2021/12/30 12:43:57;;;;;;;212.02;66.30;;;9.00;99.90;;;;;;4963593;28;20038;-51